Time;durP1;ratioP1;P1;durP2;ratioP2;P2;SDS_P1;SDS_P2;PMS_P1;PMS_P2;Temp;Humidity;BMP_temperature;BMP_pressure;BME280_temperature;BME280_humidity;BME280_pressure;Samples;Min_cycle;Max_cycle;Signal;HPM_P1;HPM_P2
2022/07/12 00:02:10;;;;;;;5.18;2.15;;;;;;;;;;4904865;29;20047;-82
2022/07/12 00:04:55;;;;;;;3.72;2.00;;;;;;;;;;4918908;29;20052;-80
2022/07/12 00:07:40;;;;;;;3.33;1.60;;;;;;;;;;4918526;29;20044;-83
2022/07/12 00:10:26;;;;;;;5.03;1.92;;;;;;;;;;4918415;29;20043;-83
2022/07/12 00:13:11;;;;;;;2.83;1.50;;;;;;;;;;4918829;29;20048;-83
2022/07/12 00:15:58;;;;;;;4.25;1.50;;;;;;;;;;4918435;29;20036;-82
2022/07/12 00:18:43;;;;;;;3.55;1.70;;;;;;;;;;4918843;29;20464;-83
2022/07/12 00:21:29;;;;;;;4.90;1.55;;;;;;;;;;4917863;29;20048;-84
2022/07/12 00:24:15;;;;;;;5.43;1.65;;;;;;;;;;4917870;29;20048;-82
2022/07/12 00:27:00;;;;;;;4.10;1.52;;;;;;;;;;4918343;29;20043;-84
2022/07/12 00:29:45;;;;;;;3.13;1.75;;;;;;;;;;4910442;29;20475;-84
2022/07/12 00:32:31;;;;;;;4.15;1.30;;;;;;;;;;4918053;29;20392;-83
2022/07/12 00:35:16;;;;;;;3.03;1.50;;;;;;;;;;4918296;29;20048;-83
2022/07/12 00:38:02;;;;;;;3.42;1.42;;;;;;;;;;4917965;29;20044;-82
2022/07/12 00:40:49;;;;;;;2.65;1.50;;;;;;;;;;4918702;29;20044;-84
2022/07/12 00:43:34;;;;;;;2.00;1.38;;;;;;;;;;4917992;29;20040;-83
2022/07/12 00:46:22;;;;;;;2.35;1.40;;;;;;;;;;4910010;29;20036;-85
2022/07/12 00:49:09;;;;;;;2.75;1.50;;;;;;;;;;4917923;29;20047;-84
2022/07/12 00:51:54;;;;;;;2.45;1.40;;;;;;;;;;4918068;29;20051;-82
2022/07/12 00:54:39;;;;;;;2.95;1.38;;;;;;;;;;4917731;29;20391;-83
2022/07/12 00:57:25;;;;;;;3.50;1.58;;;;;;;;;;4917842;29;20383;-85
2022/07/12 01:00:21;;;;;;;3.80;1.50;;;;;;;;;;4917710;29;20043;-83
2022/07/12 01:03:06;;;;;;;4.10;1.70;;;;;;;;;;4917772;29;20044;-83
2022/07/12 01:05:52;;;;;;;2.33;1.33;;;;;;;;;;4917522;29;20052;-83
2022/07/12 01:08:37;;;;;;;3.58;1.60;;;;;;;;;;4917826;29;20044;-83
2022/07/12 01:11:23;;;;;;;2.70;1.50;;;;;;;;;;4917855;29;20036;-82
2022/07/12 01:14:10;;;;;;;5.18;1.50;;;;;;;;;;4917158;29;20048;-82
2022/07/12 01:16:57;;;;;;;3.90;1.42;;;;;;;;;;4909552;29;20047;-83
2022/07/12 01:19:44;;;;;;;2.42;1.30;;;;;;;;;;4917450;29;20052;-84
2022/07/12 01:22:40;;;;;;;4.97;1.52;;;;;;;;;;4917924;29;20040;-82
2022/07/12 01:25:26;;;;;;;1.38;1.27;;;;;;;;;;4917518;29;20036;-84
2022/07/12 01:28:12;;;;;;;5.30;2.20;;;;;;;;;;4923656;29;20391;-82
2022/07/12 01:30:57;;;;;;;4.15;1.85;;;;;;;;;;4924145;29;20051;-83
2022/07/12 01:33:42;;;;;;;2.97;1.77;;;;;;;;;;4917447;29;20379;-81
2022/07/12 01:36:28;;;;;;;4.40;1.83;;;;;;;;;;4917553;29;20048;-84
2022/07/12 01:39:13;;;;;;;4.97;2.10;;;;;;;;;;4917488;29;20048;-82
2022/07/12 01:41:59;;;;;;;6.82;2.40;;;;;;;;;;4916959;29;20484;-83
2022/07/12 01:44:44;;;;;;;8.45;2.53;;;;;;;;;;4917380;29;20048;-82
2022/07/12 01:47:32;;;;;;;13.85;2.63;;;;;;;;;;4917116;29;20040;-82
2022/07/12 01:50:17;;;;;;;4.20;2.13;;;;;;;;;;4917741;29;20372;-84
2022/07/12 01:53:06;;;;;;;7.45;2.00;;;;;;;;;;4917264;29;20044;-84
2022/07/12 01:55:51;;;;;;;4.55;1.83;;;;;;;;;;4917168;29;20044;-84
2022/07/12 01:58:37;;;;;;;13.02;1.95;;;;;;;;;;4917534;29;20043;-83
2022/07/12 02:01:22;;;;;;;3.75;1.80;;;;;;;;;;4916968;29;20639;-83
2022/07/12 02:04:07;;;;;;;2.78;1.50;;;;;;;;;;4917005;29;20036;-82
2022/07/12 02:06:52;;;;;;;2.75;1.70;;;;;;;;;;4917361;29;20040;-83
2022/07/12 02:09:38;;;;;;;4.75;1.50;;;;;;;;;;4916961;29;20044;-82
2022/07/12 02:12:23;;;;;;;4.80;1.80;;;;;;;;;;4917548;29;20459;-82
2022/07/12 02:15:10;;;;;;;6.90;2.00;;;;;;;;;;4917578;29;20040;-83
2022/07/12 02:17:55;;;;;;;6.20;2.03;;;;;;;;;;4920859;29;20048;-84
2022/07/12 02:20:40;;;;;;;4.00;1.85;;;;;;;;;;4906620;29;20036;-83
2022/07/12 02:23:25;;;;;;;6.35;2.00;;;;;;;;;;4912391;29;20059;-82
2022/07/12 02:26:10;;;;;;;4.05;1.80;;;;;;;;;;4920621;29;20044;-83
2022/07/12 02:28:56;;;;;;;1.48;1.30;;;;;;;;;;4920579;29;20475;-83
2022/07/12 02:31:42;;;;;;;3.80;1.50;;;;;;;;;;4920691;29;20487;-81
2022/07/12 02:34:26;;;;;;;3.55;1.80;;;;;;;;;;4912459;29;20400;-82
2022/07/12 02:37:12;;;;;;;1.98;1.50;;;;;;;;;;4919837;29;20040;-82
2022/07/12 02:43:01;;;;;;;4.00;1.95;;;;;;;;;;4920335;29;20048;-83
2022/07/12 02:45:48;;;;;;;5.10;2.00;;;;;;;;;;4920616;29;20052;-83
2022/07/12 02:48:34;;;;;;;4.35;1.65;;;;;;;;;;4920211;29;20036;-84
2022/07/12 02:51:19;;;;;;;4.47;1.83;;;;;;;;;;4911979;29;20055;-84
2022/07/12 02:54:05;;;;;;;3.13;2.00;;;;;;;;;;4912102;29;20055;-82
2022/07/12 02:56:50;;;;;;;5.35;1.73;;;;;;;;;;4920313;29;20044;-83
2022/07/12 02:59:35;;;;;;;5.65;1.73;;;;;;;;;;4919827;29;20416;-82
2022/07/12 03:02:21;;;;;;;6.07;1.90;;;;;;;;;;4920051;29;20472;-83
2022/07/12 03:05:07;;;;;;;5.53;1.95;;;;;;;;;;4919393;29;20464;-84
2022/07/12 03:07:53;;;;;;;2.67;1.60;;;;;;;;;;4919874;29;20391;-84
2022/07/12 03:10:39;;;;;;;3.03;1.75;;;;;;;;;;4920035;29;20040;-83
2022/07/12 03:13:25;;;;;;;3.78;1.70;;;;;;;;;;4919504;29;20052;-82
2022/07/12 03:16:10;;;;;;;1.95;1.40;;;;;;;;;;4922811;29;20048;-82
2022/07/12 03:18:56;;;;;;;4.80;1.67;;;;;;;;;;4925635;29;20056;-82
2022/07/12 03:21:42;;;;;;;2.28;1.73;;;;;;;;;;4926001;29;20040;-83
2022/07/12 03:24:27;;;;;;;3.75;1.52;;;;;;;;;;4925556;29;20036;-84
2022/07/12 03:27:12;;;;;;;3.10;1.52;;;;;;;;;;4930934;29;20051;-83
2022/07/12 03:29:59;;;;;;;4.80;1.65;;;;;;;;;;4922388;29;20044;-84
2022/07/12 03:32:44;;;;;;;3.08;1.63;;;;;;;;;;4916807;29;20036;-83
2022/07/12 03:35:29;;;;;;;2.83;1.35;;;;;;;;;;4923434;29;20056;-84
2022/07/12 03:38:15;;;;;;;3.25;1.75;;;;;;;;;;4919356;29;20040;-84
2022/07/12 03:41:01;;;;;;;10.00;1.65;;;;;;;;;;4911863;29;20048;-83
2022/07/12 03:43:46;;;;;;;4.80;1.48;;;;;;;;;;4901241;29;20388;-82
2022/07/12 03:46:32;;;;;;;3.92;1.58;;;;;;;;;;4913307;29;20048;-82
2022/07/12 03:49:17;;;;;;;2.67;1.70;;;;;;;;;;4917412;29;20402;-83
2022/07/12 03:52:03;;;;;;;2.20;1.52;;;;;;;;;;4918639;29;20040;-84
2022/07/12 03:54:48;;;;;;;3.78;1.60;;;;;;;;;;4916557;29;20048;-83
2022/07/12 03:57:34;;;;;;;3.55;1.75;;;;;;;;;;4903284;29;20048;-82
2022/07/12 04:00:20;;;;;;;5.38;1.58;;;;;;;;;;4918322;29;20044;-83
2022/07/12 04:03:05;;;;;;;2.75;1.60;;;;;;;;;;4916927;29;20044;-83
2022/07/12 04:05:51;;;;;;;4.22;2.22;;;;;;;;;;4918380;29;20052;-84
2022/07/12 04:08:36;;;;;;;4.43;2.00;;;;;;;;;;4918346;29;20044;-83
2022/07/12 04:11:22;;;;;;;3.65;1.92;;;;;;;;;;4918870;29;20040;-85
2022/07/12 04:14:07;;;;;;;2.50;1.70;;;;;;;;;;4918878;29;20048;-83
2022/07/12 04:16:53;;;;;;;3.83;2.03;;;;;;;;;;4918776;29;20048;-83
2022/07/12 04:19:39;;;;;;;4.57;1.70;;;;;;;;;;4918609;29;20052;-84
2022/07/12 04:22:24;;;;;;;3.05;1.65;;;;;;;;;;4918174;29;20052;-82
2022/07/12 04:25:10;;;;;;;3.97;1.55;;;;;;;;;;4918452;29;20044;-83
2022/07/12 04:27:55;;;;;;;4.05;1.88;;;;;;;;;;4918697;29;20452;-83
2022/07/12 04:30:43;;;;;;;5.45;2.08;;;;;;;;;;4918487;29;20044;-83
2022/07/12 04:33:29;;;;;;;3.85;2.10;;;;;;;;;;4925215;29;20048;-83
2022/07/12 04:36:14;;;;;;;4.53;2.15;;;;;;;;;;4918129;29;20048;-82
2022/07/12 04:39:00;;;;;;;4.93;1.70;;;;;;;;;;4917709;29;20040;-83
2022/07/12 04:41:46;;;;;;;4.85;2.10;;;;;;;;;;4918091;29;20040;-82
2022/07/12 04:44:31;;;;;;;2.22;1.38;;;;;;;;;;4910410;29;20472;-83
2022/07/12 04:47:16;;;;;;;4.43;1.55;;;;;;;;;;4910470;29;20047;-81
2022/07/12 04:50:07;;;;;;;5.07;1.80;;;;;;;;;;4918148;29;20400;-83
2022/07/12 04:52:51;;;;;;;8.25;1.80;;;;;;;;;;4924420;29;20388;-83
2022/07/12 04:55:37;;;;;;;4.53;1.90;;;;;;;;;;4918338;29;20040;-82
2022/07/12 04:58:23;;;;;;;3.97;1.75;;;;;;;;;;4918415;29;20193;-82
2022/07/12 05:01:07;;;;;;;3.13;1.40;;;;;;;;;;4918787;29;20464;-83
2022/07/12 05:03:53;;;;;;;3.88;1.80;;;;;;;;;;4917703;29;20048;-82
2022/07/12 05:06:38;;;;;;;2.13;1.50;;;;;;;;;;4918658;29;20039;-82
2022/07/12 05:09:24;;;;;;;6.57;2.22;;;;;;;;;;4918342;29;20044;-82
2022/07/12 05:12:09;;;;;;;6.60;1.80;;;;;;;;;;4918330;29;20044;-82
2022/07/12 05:14:54;;;;;;;4.47;1.85;;;;;;;;;;4918651;29;20048;-83
2022/07/12 05:17:40;;;;;;;4.90;1.73;;;;;;;;;;4918174;29;20044;-83
2022/07/12 05:20:26;;;;;;;4.82;1.40;;;;;;;;;;4918939;29;20044;-82
2022/07/12 05:23:11;;;;;;;3.88;1.65;;;;;;;;;;4912598;29;20045;-82
2022/07/12 05:25:56;;;;;;;4.50;2.05;;;;;;;;;;4899032;29;20049;-82
2022/07/12 05:28:41;;;;;;;5.53;1.75;;;;;;;;;;4907588;29;20472;-83
2022/07/12 05:31:27;;;;;;;6.68;1.85;;;;;;;;;;4914357;29;20048;-82
2022/07/12 05:34:13;;;;;;;5.28;1.65;;;;;;;;;;4901639;29;20048;-83
2022/07/12 05:36:58;;;;;;;6.53;1.50;;;;;;;;;;4918266;29;20040;-82
2022/07/12 05:39:44;;;;;;;4.15;1.50;;;;;;;;;;4917862;29;20044;-81
2022/07/12 05:42:29;;;;;;;2.88;1.17;;;;;;;;;;4924015;29;20047;-83
2022/07/12 05:45:14;;;;;;;5.22;1.50;;;;;;;;;;4903121;29;20048;-82
2022/07/12 05:47:59;;;;;;;2.72;1.10;;;;;;;;;;4918773;29;20044;-82
2022/07/12 05:50:45;;;;;;;4.80;1.52;;;;;;;;;;4919813;29;20044;-82
2022/07/12 05:53:31;;;;;;;4.10;1.70;;;;;;;;;;4926616;29;20044;-81
2022/07/12 05:56:16;;;;;;;5.72;1.55;;;;;;;;;;4917793;29;20468;-82
2022/07/12 05:59:02;;;;;;;3.28;1.40;;;;;;;;;;4913191;29;20045;-81
2022/07/12 06:01:47;;;;;;;5.03;1.75;;;;;;;;;;4913656;29;20048;-83
2022/07/12 06:04:33;;;;;;;4.15;1.50;;;;;;;;;;4913138;29;20482;-82
2022/07/12 06:07:18;;;;;;;5.90;1.60;;;;;;;;;;4913373;29;20032;-81
2022/07/12 06:10:04;;;;;;;4.45;1.77;;;;;;;;;;4915698;29;20040;-83
2022/07/12 06:12:49;;;;;;;4.75;1.60;;;;;;;;;;4902895;29;20041;-82
2022/07/12 06:15:36;;;;;;;4.47;1.75;;;;;;;;;;4920833;29;20055;-81
2022/07/12 06:18:21;;;;;;;6.85;1.80;;;;;;;;;;4940476;29;20063;-79
2022/07/12 06:21:06;;;;;;;4.95;1.65;;;;;;;;;;4937765;29;20380;-81
2022/07/12 06:23:53;;;;;;;7.60;1.80;;;;;;;;;;4928385;29;20043;-77
2022/07/12 06:26:39;;;;;;;7.28;2.00;;;;;;;;;;4936429;29;20048;-79
2022/07/12 06:29:24;;;;;;;4.85;2.00;;;;;;;;;;4931330;29;20047;-79
2022/07/12 06:32:10;;;;;;;4.45;1.85;;;;;;;;;;4934374;29;20411;-80
2022/07/12 06:34:56;;;;;;;3.95;1.95;;;;;;;;;;4945080;29;20467;-81
2022/07/12 06:37:43;;;;;;;9.18;4.55;;;;;;;;;;4935406;29;20048;-81
2022/07/12 06:40:29;;;;;;;4.78;1.58;;;;;;;;;;4945967;29;20052;-82
2022/07/12 06:43:14;;;;;;;6.22;1.98;;;;;;;;;;4938081;29;20039;-82
2022/07/12 06:46:00;;;;;;;4.53;1.40;;;;;;;;;;4930662;29;20044;-81
2022/07/12 06:48:45;;;;;;;7.22;2.20;;;;;;;;;;4938875;29;20043;-81
2022/07/12 06:51:31;;;;;;;6.13;1.60;;;;;;;;;;4938961;29;20039;-81
2022/07/12 06:54:16;;;;;;;4.63;1.38;;;;;;;;;;4938982;29;20375;-82
2022/07/12 06:57:02;;;;;;;4.63;1.95;;;;;;;;;;4945013;29;20043;-82
2022/07/12 06:59:48;;;;;;;5.93;1.60;;;;;;;;;;4936860;29;20043;-81
2022/07/12 07:02:33;;;;;;;5.22;1.95;;;;;;;;;;4944610;29;20043;-82
2022/07/12 07:05:19;;;;;;;3.45;1.60;;;;;;;;;;4944424;29;20048;-82
2022/07/12 07:08:05;;;;;;;3.13;1.63;;;;;;;;;;4943374;29;20051;-82
2022/07/12 07:10:52;;;;;;;7.97;2.28;;;;;;;;;;4929333;29;20048;-83
2022/07/12 07:13:37;;;;;;;3.95;1.60;;;;;;;;;;4918845;29;20044;-81
2022/07/12 07:16:24;;;;;;;4.70;1.50;;;;;;;;;;4919063;29;20047;-82
2022/07/12 07:19:09;;;;;;;5.75;1.50;;;;;;;;;;4909839;29;20484;-81
2022/07/12 07:21:55;;;;;;;5.32;1.30;;;;;;;;;;4925605;29;20052;-81
2022/07/12 07:24:41;;;;;;;7.30;1.67;;;;;;;;;;4918869;29;20040;-83
2022/07/12 07:27:26;;;;;;;3.78;1.60;;;;;;;;;;4919560;29;20040;-80
2022/07/12 07:33:15;;;;;;;5.18;1.50;;;;;;;;;;4919393;29;20391;-80
2022/07/12 07:36:01;;;;;;;2.70;1.42;;;;;;;;;;4919030;29;20052;-80
2022/07/12 07:38:47;;;;;;;5.35;1.45;;;;;;;;;;4914466;29;20052;-81
2022/07/12 07:41:32;;;;;;;6.15;1.42;;;;;;;;;;4915885;29;20056;-80
2022/07/12 07:44:17;;;;;;;3.10;1.50;;;;;;;;;;4911031;29;20044;-80
2022/07/12 07:47:03;;;;;;;2.55;1.30;;;;;;;;;;4919443;29;20040;-81
2022/07/12 07:49:48;;;;;;;3.22;1.40;;;;;;;;;;4923791;29;20036;-80
2022/07/12 07:52:34;;;;;;;5.85;2.20;;;;;;;;;;4918179;29;20388;-80
2022/07/12 07:55:19;;;;;;;8.65;3.28;;;;;;;;;;4910160;29;20048;-81
2022/07/12 07:58:04;;;;;;;5.20;1.98;;;;;;;;;;4918863;29;20055;-81
2022/07/12 08:00:50;;;;;;;11.00;8.23;;;;;;;;;;4919568;29;20044;-81
2022/07/12 08:03:36;;;;;;;3.10;1.42;;;;;;;;;;4918984;29;20048;-80
2022/07/12 08:06:21;;;;;;;84.90;59.28;;;;;;;;;;4924788;29;20039;-81
2022/07/12 08:09:08;;;;;;;3.95;2.05;;;;;;;;;;4918597;29;20040;-80
2022/07/12 08:11:54;;;;;;;7.63;2.55;;;;;;;;;;4918626;29;20044;-82
2022/07/12 08:14:39;;;;;;;4.65;2.30;;;;;;;;;;4924267;29;20048;-81
2022/07/12 08:17:25;;;;;;;4.57;1.70;;;;;;;;;;4918115;29;20048;-81
2022/07/12 08:20:11;;;;;;;4.25;1.60;;;;;;;;;;4917967;29;20040;-82
2022/07/12 08:22:56;;;;;;;3.45;1.30;;;;;;;;;;4918741;29;20040;-82
2022/07/12 08:25:42;;;;;;;4.32;1.40;;;;;;;;;;4918276;29;20040;-81
2022/07/12 08:28:27;;;;;;;7.95;1.50;;;;;;;;;;4917798;29;20040;-81
2022/07/12 08:31:14;;;;;;;10.02;1.70;;;;;;;;;;4918376;29;20496;-80
2022/07/12 08:33:59;;;;;;;4.53;1.23;;;;;;;;;;4918237;29;20043;-80
2022/07/12 08:36:44;;;;;;;1.48;1.10;;;;;;;;;;4924507;29;20043;-82
2022/07/12 08:39:30;;;;;;;3.88;1.20;;;;;;;;;;4917091;29;20376;-80
2022/07/12 08:42:17;;;;;;;8.27;1.45;;;;;;;;;;4917278;29;20471;-80
2022/07/12 08:45:02;;;;;;;4.50;1.20;;;;;;;;;;4917549;29;20044;-82
2022/07/12 08:47:48;;;;;;;4.20;1.17;;;;;;;;;;4917383;29;20471;-80
2022/07/12 08:50:34;;;;;;;3.55;1.13;;;;;;;;;;4918548;29;20052;-80
2022/07/12 08:53:20;;;;;;;4.68;1.10;;;;;;;;;;4924513;29;20048;-80
2022/07/12 08:56:06;;;;;;;1.83;1.00;;;;;;;;;;4917550;29;20052;-80
2022/07/12 08:59:12;;;;;;;3.67;1.25;;;;;;;;;;4918358;29;20044;-82
2022/07/12 09:01:58;;;;;;;6.28;1.30;;;;;;;;;;4924400;29;20044;-81
2022/07/12 09:04:44;;;;;;;2.17;1.15;;;;;;;;;;4917696;29;20416;-82
2022/07/12 09:07:29;;;;;;;3.03;1.10;;;;;;;;;;4917916;29;20039;-82
2022/07/12 09:10:15;;;;;;;7.35;1.48;;;;;;;;;;4917351;29;20056;-81
2022/07/12 09:13:01;;;;;;;4.88;1.35;;;;;;;;;;4913954;29;20048;-81
2022/07/12 09:15:47;;;;;;;4.28;1.38;;;;;;;;;;4906210;29;20051;-82
2022/07/12 09:18:31;;;;;;;4.65;1.27;;;;;;;;;;4918355;29;20048;-83
2022/07/12 09:21:29;;;;;;;2.20;0.95;;;;;;;;;;4904766;29;20041;-82
2022/07/12 09:24:14;;;;;;;3.42;1.10;;;;;;;;;;4915257;29;20047;-81
2022/07/12 09:27:02;;;;;;;4.05;0.95;;;;;;;;;;4917086;29;20044;-83
2022/07/12 09:29:48;;;;;;;4.78;1.23;;;;;;;;;;4906239;29;20478;-80
2022/07/12 09:38:45;;;;;;;2.75;1.15;;;;;;;;;;4922061;29;20040;-80
2022/07/12 09:41:32;;;;;;;4.13;1.10;;;;;;;;;;4923520;29;20480;-79
2022/07/12 09:44:18;;;;;;;1.38;0.63;;;;;;;;;;4915320;29;20048;-82
2022/07/12 09:47:06;;;;;;;1.73;1.05;;;;;;;;;;4921958;29;20040;-81
2022/07/12 09:49:53;;;;;;;8.65;1.42;;;;;;;;;;4923118;29;20048;-80
2022/07/12 09:52:42;;;;;;;3.67;1.50;;;;;;;;;;4917675;29;20047;-81
2022/07/12 09:55:30;;;;;;;2.78;1.00;;;;;;;;;;4923675;29;20056;-80
2022/07/12 09:58:21;;;;;;;4.68;1.40;;;;;;;;;;4923268;29;20060;-80
2022/07/12 10:01:08;;;;;;;6.35;1.50;;;;;;;;;;4923408;29;20044;-80
2022/07/12 10:03:56;;;;;;;1.95;1.10;;;;;;;;;;4917168;29;20048;-79
2022/07/12 10:06:41;;;;;;;3.90;1.25;;;;;;;;;;4923350;29;20380;-79
2022/07/12 10:09:28;;;;;;;5.25;0.95;;;;;;;;;;4922978;29;20356;-80
2022/07/12 10:12:16;;;;;;;3.20;1.15;;;;;;;;;;4922711;29;20039;-81
2022/07/12 10:15:04;;;;;;;3.95;1.10;;;;;;;;;;4923193;29;20052;-80
2022/07/12 10:17:53;;;;;;;2.65;1.10;;;;;;;;;;4920494;29;20380;-79
2022/07/12 10:20:43;;;;;;;6.07;1.17;;;;;;;;;;4917119;29;20040;-79
2022/07/12 10:23:36;;;;;;;4.50;1.10;;;;;;;;;;4917235;29;20052;-80
2022/07/12 10:26:37;;;;;;;1.60;1.15;;;;;;;;;;4908301;29;20044;-79
2022/07/12 10:29:23;;;;;;;3.60;1.30;;;;;;;;;;4922971;29;20052;-80
2022/07/12 10:32:34;;;;;;;6.10;1.33;;;;;;;;;;4908888;29;20040;-81
2022/07/12 10:35:21;;;;;;;4.75;1.30;;;;;;;;;;4916657;29;20044;-78
2022/07/12 10:38:11;;;;;;;5.40;1.10;;;;;;;;;;4926584;29;20052;-79
2022/07/12 10:40:56;;;;;;;2.55;1.40;;;;;;;;;;4925947;29;20048;-78
2022/07/12 10:47:02;;;;;;;4.45;0.98;;;;;;;;;;4919483;29;20048;-80
2022/07/12 10:49:52;;;;;;;3.35;1.10;;;;;;;;;;4920031;29;20112;-80
2022/07/12 10:52:37;;;;;;;2.35;0.90;;;;;;;;;;4920247;29;20043;-81
2022/07/12 10:55:22;;;;;;;3.25;1.20;;;;;;;;;;4919189;29;20043;-80
2022/07/12 10:58:09;;;;;;;1.38;0.80;;;;;;;;;;4925903;29;20471;-79
2022/07/12 11:00:55;;;;;;;1.90;0.90;;;;;;;;;;4925579;29;20500;-80
2022/07/12 11:03:49;;;;;;;3.15;0.90;;;;;;;;;;4926025;29;20043;-80
2022/07/12 11:06:39;;;;;;;2.97;1.00;;;;;;;;;;4925786;29;20143;-80
2022/07/12 11:09:26;;;;;;;5.50;1.10;;;;;;;;;;4925414;29;20376;-80
2022/07/12 11:12:15;;;;;;;2.25;1.00;;;;;;;;;;4926004;29;20048;-79
2022/07/12 11:15:02;;;;;;;4.53;1.20;;;;;;;;;;4919249;29;20055;-79
2022/07/12 11:17:47;;;;;;;5.18;1.27;;;;;;;;;;4919899;29;20047;-79
2022/07/12 11:20:32;;;;;;;3.90;1.40;;;;;;;;;;4919636;29;20055;-80
2022/07/12 11:23:19;;;;;;;2.60;1.27;;;;;;;;;;4925211;29;20052;-81
2022/07/12 11:26:06;;;;;;;2.38;1.00;;;;;;;;;;4919276;29;20036;-79
2022/07/12 11:28:57;;;;;;;2.55;1.05;;;;;;;;;;4925305;29;20475;-80
2022/07/12 11:31:43;;;;;;;1.83;1.00;;;;;;;;;;4919210;29;20040;-79
2022/07/12 11:34:28;;;;;;;6.88;1.02;;;;;;;;;;4925537;29;20472;-80
2022/07/12 11:37:14;;;;;;;4.10;1.20;;;;;;;;;;4925005;29;20044;-80
2022/07/12 11:40:00;;;;;;;4.05;1.38;;;;;;;;;;4919131;29;20052;-80
2022/07/12 11:42:53;;;;;;;3.58;1.05;;;;;;;;;;4925221;29;20464;-80
2022/07/12 11:45:39;;;;;;;4.00;1.02;;;;;;;;;;4911159;29;20052;-80
2022/07/12 11:48:24;;;;;;;0.82;0.70;;;;;;;;;;4911063;29;20383;-78
2022/07/12 11:51:14;;;;;;;4.70;1.10;;;;;;;;;;4924568;29;20040;-80
2022/07/12 11:53:59;;;;;;;2.10;0.90;;;;;;;;;;4925298;29;20040;-79
2022/07/12 11:56:45;;;;;;;1.70;1.10;;;;;;;;;;4924922;29;20047;-80
2022/07/12 11:59:31;;;;;;;2.47;1.30;;;;;;;;;;4924895;29;20052;-80
2022/07/12 12:02:17;;;;;;;7.53;1.20;;;;;;;;;;4924806;29;20048;-80
2022/07/12 12:05:04;;;;;;;5.28;1.13;;;;;;;;;;4924308;29;20040;-79
2022/07/12 12:07:49;;;;;;;2.45;1.20;;;;;;;;;;4918177;29;20048;-82
2022/07/12 12:10:34;;;;;;;1.95;0.90;;;;;;;;;;4909971;29;20492;-82
2022/07/12 12:13:19;;;;;;;1.58;1.00;;;;;;;;;;4919662;29;20392;-80
2022/07/12 12:16:05;;;;;;;4.03;1.08;;;;;;;;;;4915942;29;20488;-80
2022/07/12 12:18:51;;;;;;;2.13;1.00;;;;;;;;;;4918800;29;20452;-79
2022/07/12 12:21:36;;;;;;;3.80;1.00;;;;;;;;;;4911196;29;20383;-79
2022/07/12 12:24:22;;;;;;;6.70;1.90;;;;;;;;;;4906087;29;20468;-80
2022/07/12 12:27:23;;;;;;;2.35;1.00;;;;;;;;;;4913214;29;20037;-81
2022/07/12 12:30:09;;;;;;;1.80;0.93;;;;;;;;;;4899521;29;20412;-79
2022/07/12 12:32:55;;;;;;;10.45;5.60;;;;;;;;;;4903310;29;20040;-82
2022/07/12 12:35:40;;;;;;;3.63;1.48;;;;;;;;;;4912684;29;20044;-80
2022/07/12 12:38:29;;;;;;;2.28;1.38;;;;;;;;;;4913961;29;20395;-80
2022/07/12 12:41:15;;;;;;;4.38;1.08;;;;;;;;;;4916507;29;20036;-82
2022/07/12 12:44:02;;;;;;;1.65;0.98;;;;;;;;;;4924751;29;20048;-80
2022/07/12 12:46:55;;;;;;;2.65;1.13;;;;;;;;;;4923670;29;20036;-80
2022/07/12 12:49:51;;;;;;;5.10;1.50;;;;;;;;;;4917732;29;20048;-81
2022/07/12 12:52:47;;;;;;;4.30;1.27;;;;;;;;;;4923389;29;20044;-82
2022/07/12 12:55:33;;;;;;;2.90;1.00;;;;;;;;;;4900140;29;20049;-79
2022/07/12 12:58:20;;;;;;;4.78;1.08;;;;;;;;;;4918902;29;20044;-81
2022/07/12 13:01:07;;;;;;;2.67;0.80;;;;;;;;;;4923119;29;20044;-81
2022/07/12 13:03:52;;;;;;;4.95;1.52;;;;;;;;;;4917957;29;20052;-79
2022/07/12 13:06:37;;;;;;;5.18;1.00;;;;;;;;;;4917073;29;20467;-83
2022/07/12 13:09:23;;;;;;;4.05;1.02;;;;;;;;;;4917566;29;20044;-80
2022/07/12 13:12:09;;;;;;;3.53;1.10;;;;;;;;;;4923862;29;20035;-81
2022/07/12 13:14:54;;;;;;;2.53;0.95;;;;;;;;;;4921658;29;20043;-82
2022/07/12 13:17:40;;;;;;;3.15;1.00;;;;;;;;;;4899839;29;20391;-84
2022/07/12 13:20:26;;;;;;;3.80;1.02;;;;;;;;;;4913434;29;20053;-83
2022/07/12 13:23:11;;;;;;;4.22;1.00;;;;;;;;;;4898696;29;20480;-82
2022/07/12 13:25:56;;;;;;;2.88;1.45;;;;;;;;;;4898895;29;20045;-82
2022/07/12 13:28:42;;;;;;;4.90;0.90;;;;;;;;;;4904958;29;20049;-84
2022/07/12 13:31:28;;;;;;;3.15;1.00;;;;;;;;;;4906558;29;20052;-82
2022/07/12 13:34:13;;;;;;;4.15;1.98;;;;;;;;;;4923682;29;20044;-83
2022/07/12 13:36:59;;;;;;;2.38;0.85;;;;;;;;;;4917400;29;20052;-82
2022/07/12 13:42:52;;;;;;;3.85;1.33;;;;;;;;;;4922633;29;20415;-83
2022/07/12 13:45:38;;;;;;;1.25;0.80;;;;;;;;;;4923064;29;20043;-84
2022/07/12 13:48:24;;;;;;;2.95;1.13;;;;;;;;;;4917488;29;20063;-82
2022/07/12 13:51:09;;;;;;;3.50;1.20;;;;;;;;;;4923971;29;20040;-82
2022/07/12 13:53:54;;;;;;;2.50;0.98;;;;;;;;;;4917646;29;20480;-79
2022/07/12 13:56:40;;;;;;;2.38;0.90;;;;;;;;;;4919320;29;20056;-81
2022/07/12 13:59:25;;;;;;;1.90;1.10;;;;;;;;;;4917057;29;20044;-81
2022/07/12 14:02:12;;;;;;;2.15;0.90;;;;;;;;;;4916166;29;20048;-80
2022/07/12 14:04:58;;;;;;;96.05;75.85;;;;;;;;;;4913779;29;20047;-82
2022/07/12 14:07:44;;;;;;;1.40;1.20;;;;;;;;;;4909691;29;20480;-81
2022/07/12 14:10:31;;;;;;;565.08;468.58;;;;;;;;;;4906580;29;20049;-82
2022/07/12 14:13:17;;;;;;;293.75;242.95;;;;;;;;;;4912641;29;20047;-85
2022/07/12 14:16:03;;;;;;;182.68;156.13;;;;;;;;;;4927867;29;20052;-82
2022/07/12 14:18:48;;;;;;;15.00;9.23;;;;;;;;;;4921289;29;20052;-81
2022/07/12 14:21:33;;;;;;;3.78;1.92;;;;;;;;;;4927066;29;20052;-81
2022/07/12 14:24:19;;;;;;;5.35;2.13;;;;;;;;;;4927151;29;20473;-81
2022/07/12 14:27:05;;;;;;;2.97;1.08;;;;;;;;;;4919080;29;20052;-81
2022/07/12 14:29:51;;;;;;;4.30;0.90;;;;;;;;;;4920794;29;20408;-81
2022/07/12 14:32:37;;;;;;;5.25;1.10;;;;;;;;;;4926907;29;20047;-81
2022/07/12 14:35:22;;;;;;;3.55;0.85;;;;;;;;;;4924777;29;20049;-82
2022/07/12 14:38:08;;;;;;;1.85;0.90;;;;;;;;;;4926009;29;20044;-83
2022/07/12 14:40:53;;;;;;;2.65;0.93;;;;;;;;;;4920908;29;20040;-82
2022/07/12 14:43:39;;;;;;;1.98;1.00;;;;;;;;;;4918233;29;20044;-82
2022/07/12 14:46:24;;;;;;;5.03;1.05;;;;;;;;;;4919501;29;20040;-83
2022/07/12 14:49:10;;;;;;;6.07;1.20;;;;;;;;;;4907128;29;20044;-80
2022/07/12 14:51:56;;;;;;;2.05;1.10;;;;;;;;;;4926477;29;20476;-82
2022/07/12 14:54:42;;;;;;;4.88;0.98;;;;;;;;;;4920526;29;20048;-81
2022/07/12 14:57:27;;;;;;;9.00;5.60;;;;;;;;;;4918071;29;20056;-81
2022/07/12 15:00:13;;;;;;;1.65;0.82;;;;;;;;;;4901139;29;20052;-82
2022/07/12 15:02:59;;;;;;;4.57;1.00;;;;;;;;;;4908989;29;20039;-82
2022/07/12 15:05:46;;;;;;;3.33;1.00;;;;;;;;;;4910388;29;20040;-81
2022/07/12 15:08:31;;;;;;;4.88;0.95;;;;;;;;;;4915062;29;20044;-78
2022/07/12 15:11:17;;;;;;;1.73;0.95;;;;;;;;;;4907365;29;20049;-81
2022/07/12 15:14:03;;;;;;;2.00;1.10;;;;;;;;;;4908101;29;20464;-82
2022/07/12 15:16:48;;;;;;;1.60;0.70;;;;;;;;;;4917638;29;20044;-81
2022/07/12 15:19:34;;;;;;;3.15;1.10;;;;;;;;;;4915816;29;20384;-81
2022/07/12 15:22:19;;;;;;;3.10;0.95;;;;;;;;;;4925588;29;20048;-82
2022/07/12 15:25:05;;;;;;;2.05;1.08;;;;;;;;;;4923619;29;20040;-82
2022/07/12 15:27:51;;;;;;;1.45;1.02;;;;;;;;;;4918693;29;20040;-81
2022/07/12 15:30:37;;;;;;;2.25;1.13;;;;;;;;;;4918198;29;20044;-82
2022/07/12 15:33:24;;;;;;;2.67;0.95;;;;;;;;;;4925590;29;20392;-83
2022/07/12 15:36:09;;;;;;;3.00;1.17;;;;;;;;;;4911528;29;20040;-81
2022/07/12 15:38:54;;;;;;;2.63;1.00;;;;;;;;;;4919256;29;20486;-81
2022/07/12 15:41:39;;;;;;;6.35;1.10;;;;;;;;;;4912171;29;20043;-80
2022/07/12 15:44:24;;;;;;;4.03;1.40;;;;;;;;;;4910053;29;20473;-80
2022/07/12 15:47:13;;;;;;;3.30;1.20;;;;;;;;;;4905809;29;20045;-80
2022/07/12 15:49:59;;;;;;;1.52;1.02;;;;;;;;;;4916982;29;20052;-82
2022/07/12 15:55:48;;;;;;;3.15;1.10;;;;;;;;;;4929833;29;20391;-83
2022/07/12 15:58:37;;;;;;;2.15;0.93;;;;;;;;;;4928984;29;20043;-82
2022/07/12 16:01:22;;;;;;;4.45;0.90;;;;;;;;;;4930240;29;20044;-81
2022/07/12 16:04:08;;;;;;;3.63;1.40;;;;;;;;;;4921817;29;20473;-80
2022/07/12 16:06:53;;;;;;;2.40;1.17;;;;;;;;;;4923893;29;20044;-81
2022/07/12 16:09:39;;;;;;;4.50;1.23;;;;;;;;;;4917837;29;20056;-78
2022/07/12 16:12:24;;;;;;;3.58;1.10;;;;;;;;;;4916101;29;20047;-81
2022/07/12 16:15:11;;;;;;;4.57;1.30;;;;;;;;;;4923131;29;20043;-80
2022/07/12 16:17:56;;;;;;;2.90;1.38;;;;;;;;;;4918167;29;20121;-81
2022/07/12 16:20:42;;;;;;;3.72;1.20;;;;;;;;;;4917878;29;20052;-79
2022/07/12 16:23:27;;;;;;;2.05;1.10;;;;;;;;;;4923838;29;20036;-79
2022/07/12 16:26:12;;;;;;;3.13;1.33;;;;;;;;;;4918454;29;20044;-81
2022/07/12 16:28:58;;;;;;;1.80;1.05;;;;;;;;;;4924549;29;20044;-80
2022/07/12 16:31:43;;;;;;;6.43;1.60;;;;;;;;;;4904073;29;20044;-81
2022/07/12 16:34:28;;;;;;;3.28;1.30;;;;;;;;;;4909323;29;20044;-80
2022/07/12 16:37:14;;;;;;;6.05;1.13;;;;;;;;;;4924196;29;20047;-79
2022/07/12 16:39:59;;;;;;;2.33;1.20;;;;;;;;;;4924713;29;20044;-80
2022/07/12 16:42:45;;;;;;;6.35;1.70;;;;;;;;;;4924509;29;20044;-81
2022/07/12 16:45:31;;;;;;;5.65;1.70;;;;;;;;;;4923114;29;20048;-81
2022/07/12 16:48:18;;;;;;;3.30;1.20;;;;;;;;;;4924120;29;20051;-78
2022/07/12 16:51:22;;;;;;;1.80;1.27;;;;;;;;;;4923899;29;20044;-79
2022/07/12 16:54:07;;;;;;;5.28;1.58;;;;;;;;;;4924092;29;20395;-79
2022/07/12 16:56:53;;;;;;;4.35;1.10;;;;;;;;;;4924463;29;20056;-80
2022/07/12 16:59:39;;;;;;;1.73;1.10;;;;;;;;;;4924137;29;20074;-82